Time;durP1;ratioP1;P1;durP2;ratioP2;P2;SDS_P1;SDS_P2;PMS_P1;PMS_P2;Temp;Humidity;BMP_temperature;BMP_pressure;BME280_temperature;BME280_humidity;BME280_pressure;Samples;Min_cycle;Max_cycle;Signal;HPM_P1;HPM_P2
2021/12/20 00:01:32;;;;;;;;;;;;;;;9.47;71.27;102512.19;5095909;28;27785;-80
2021/12/20 00:03:57;;;;;;;;;;;;;;;9.45;71.04;102516.44;5098007;28;53513;-79
2021/12/20 00:06:22;;;;;;;;;;;;;;;9.46;71.14;102514.75;5098184;28;56232;-78
2021/12/20 00:08:47;;;;;;;;;;;;;;;9.46;71.28;102509.59;5100875;28;26850;-80
2021/12/20 00:11:12;;;;;;;;;;;;;;;9.43;70.90;102513.00;5097714;28;37004;-81
2021/12/20 00:13:38;;;;;;;;;;;;;;;9.44;71.51;102517.31;5096953;28;54728;-80
2021/12/20 00:16:03;;;;;;;;;;;;;;;9.44;70.63;102512.16;5097416;28;26995;-80
2021/12/20 00:18:28;;;;;;;;;;;;;;;9.43;70.83;102505.28;5098165;28;26887;-79
2021/12/20 00:20:53;;;;;;;;;;;;;;;9.40;70.97;102510.41;5096544;28;42438;-80
2021/12/20 00:23:18;;;;;;;;;;;;;;;9.36;70.80;102498.34;5096371;28;27121;-79
2021/12/20 00:25:48;;;;;;;;;;;;;;;9.36;70.96;102495.78;5095962;28;26873;-80
2021/12/20 00:28:13;;;;;;;;;;;;;;;9.36;71.19;102503.50;5097305;28;26955;-79
2021/12/20 00:30:39;;;;;;;;;;;;;;;9.37;71.42;102505.25;5099257;28;26884;-79
2021/12/20 00:33:05;;;;;;;;;;;;;;;9.38;71.04;102501.78;5097222;28;26533;-79
2021/12/20 00:35:30;;;;;;;;;;;;;;;9.38;70.79;102495.78;5095830;28;26991;-80
2021/12/20 00:40:39;;;;;;;;;;;;;;;9.33;70.72;102493.19;5098394;27;27099;-80
2021/12/20 00:43:06;;;;;;;;;;;;;;;9.32;71.03;102493.16;5101050;28;26877;-78
2021/12/20 00:45:32;;;;;;;;;;;;;;;9.32;71.00;102496.59;5101231;28;27032;-79
2021/12/20 00:47:58;;;;;;;;;;;;;;;9.35;71.07;102495.75;5101124;28;26711;-79
2021/12/20 00:50:24;;;;;;;;;;;;;;;9.35;70.72;102496.63;5100696;28;26706;-79
2021/12/20 00:52:50;;;;;;;;;;;;;;;9.36;70.82;102497.47;5100423;28;26543;-79
2021/12/20 00:55:17;;;;;;;;;;;;;;;9.37;70.58;102499.22;5100102;28;26821;-79
2021/12/20 00:57:44;;;;;;;;;;;;;;;9.36;70.56;102500.94;5101165;28;26997;-81
2021/12/20 01:00:10;;;;;;;;;;;;;;;9.34;70.96;102494.88;5100226;28;26878;-80
2021/12/20 01:02:36;;;;;;;;;;;;;;;9.32;70.59;102496.59;5100214;28;26816;-80
2021/12/20 01:05:01;;;;;;;;;;;;;;;9.32;70.84;102511.19;5100648;28;26955;-80
2021/12/20 01:07:28;;;;;;;;;;;;;;;9.31;70.86;102500.03;5100927;28;27018;-80
2021/12/20 01:09:57;;;;;;;;;;;;;;;9.33;70.30;102506.06;5100013;28;26768;-80
2021/12/20 01:12:25;;;;;;;;;;;;;;;9.35;70.74;102506.06;5099982;28;26887;-79
2021/12/20 01:14:58;;;;;;;;;;;;;;;9.38;70.81;102506.94;5099865;28;27508;-79
2021/12/20 01:17:23;;;;;;;;;;;;;;;9.37;71.26;102507.81;5099335;28;26972;-79
2021/12/20 01:19:48;;;;;;;;;;;;;;;9.37;70.84;102515.56;5100712;28;26818;-79
2021/12/20 01:22:13;;;;;;;;;;;;;;;9.36;70.72;102507.81;5104131;28;50376;-80
2021/12/20 01:24:38;;;;;;;;;;;;;;;9.36;70.67;102518.97;5099599;28;55454;-80
2021/12/20 01:27:04;;;;;;;;;;;;;;;9.37;70.66;102515.56;5098827;28;46306;-80
2021/12/20 01:29:29;;;;;;;;;;;;;;;9.39;70.74;102519.00;5100040;28;26939;-81
2021/12/20 01:31:54;;;;;;;;;;;;;;;9.39;71.20;102513.84;5098873;28;26476;-80
2021/12/20 01:34:19;;;;;;;;;;;;;;;9.41;70.91;102517.28;5099044;28;38911;-80
2021/12/20 01:36:44;;;;;;;;;;;;;;;9.40;71.13;102510.41;5098099;28;54639;-80
2021/12/20 01:39:10;;;;;;;;;;;;;;;9.39;71.07;102513.84;5100566;28;33526;-79
2021/12/20 01:41:40;;;;;;;;;;;;;;;9.37;70.32;102510.41;5100830;28;26665;-79
2021/12/20 01:44:05;;;;;;;;;;;;;;;9.35;70.82;102516.38;5099970;28;27618;-79
2021/12/20 01:46:30;;;;;;;;;;;;;;;9.33;70.52;102513.81;5099329;28;26887;-79
2021/12/20 01:48:56;;;;;;;;;;;;;;;9.32;70.39;102506.91;5098735;28;26854;-80
2021/12/20 01:53:56;;;;;;;;;;;;;;;9.25;70.77;102505.16;5094979;28;26850;-80
2021/12/20 01:56:21;;;;;;;;;;;;;;;9.25;70.61;102505.16;5098691;28;26868;-80
2021/12/20 01:58:47;;;;;;;;;;;;;;;9.22;70.08;102500.81;5098599;28;27608;-80
2021/12/20 02:03:40;;;;;;;;;;;;;;;9.16;70.39;102499.91;5101774;28;28409;-79
2021/12/20 02:06:11;;;;;;;;;;;;;;;9.11;70.63;102506.75;5101023;28;26782;-79
2021/12/20 02:08:37;;;;;;;;;;;;;;;9.07;70.33;102510.16;5099491;28;26880;-80
2021/12/20 02:11:05;;;;;;;;;;;;;;;9.00;70.33;102498.91;5098361;28;26846;-80
2021/12/20 02:13:31;;;;;;;;;;;;;;;8.94;70.05;102498.88;5103168;28;27365;-79
2021/12/20 02:15:57;;;;;;;;;;;;;;;8.91;70.33;102503.13;5102795;28;26558;-78
2021/12/20 02:18:22;;;;;;;;;;;;;;;8.88;70.25;102503.09;5099790;28;26876;-80
2021/12/20 02:20:48;;;;;;;;;;;;;;;8.85;70.19;102497.94;5098877;28;26758;-81
2021/12/20 02:23:13;;;;;;;;;;;;;;;8.81;70.16;102511.63;5098678;28;26915;-79
2021/12/20 02:25:38;;;;;;;;;;;;;;;8.77;70.12;102504.72;5098683;28;26723;-78
2021/12/20 02:28:06;;;;;;;;;;;;;;;8.72;70.21;102508.13;5098426;28;27150;-80
2021/12/20 02:38:27;;;;;;;;;;;;;;;8.44;69.81;102500.94;5094890;28;27046;-80
2021/12/20 02:41:10;;;;;;;;;;;;;;;8.39;70.02;102507.75;5098166;28;26932;-79
2021/12/20 02:43:40;;;;;;;;;;;;;;;8.32;69.96;102503.38;5099138;28;27420;-80
2021/12/20 02:46:10;;;;;;;;;;;;;;;8.28;70.17;102493.88;5097738;28;26917;-79
2021/12/20 02:48:35;;;;;;;;;;;;;;;8.22;70.00;102498.91;5097103;28;27061;-79
2021/12/20 02:51:00;;;;;;;;;;;;;;;8.18;70.05;102492.00;5096602;28;54477;-80
2021/12/20 02:53:25;;;;;;;;;;;;;;;8.12;70.16;102497.97;5097596;28;40730;-79
2021/12/20 02:55:51;;;;;;;;;;;;;;;8.08;70.27;102497.91;5097219;28;55126;-78
2021/12/20 02:58:16;;;;;;;;;;;;;;;8.03;70.32;102491.81;5098378;28;27566;-78
2021/12/20 03:00:42;;;;;;;;;;;;;;;7.98;69.71;102493.50;5098366;28;26817;-79
2021/12/20 03:03:08;;;;;;;;;;;;;;;7.94;70.21;102496.88;5098032;28;27141;-80
2021/12/20 03:05:33;;;;;;;;;;;;;;;7.91;70.34;102499.41;5097761;28;26954;-79
2021/12/20 03:07:59;;;;;;;;;;;;;;;7.87;70.23;102506.22;5098396;28;26981;-79
2021/12/20 03:10:26;;;;;;;;;;;;;;;7.84;70.41;102500.13;5099606;28;26961;-80
2021/12/20 03:12:52;;;;;;;;;;;;;;;7.77;69.99;102492.34;5098928;28;26948;-80
2021/12/20 03:15:22;;;;;;;;;;;;;;;7.74;70.16;102504.31;5096507;28;26900;-79
2021/12/20 03:17:48;;;;;;;;;;;;;;;7.69;70.18;102499.09;5078342;28;28641;-81
2021/12/20 03:20:15;;;;;;;;;;;;;;;7.66;70.02;102500.75;5097101;28;27069;-80
2021/12/20 03:22:43;;;;;;;;;;;;;;;7.61;70.43;102498.09;5097070;28;27542;-80
2021/12/20 03:25:09;;;;;;;;;;;;;;;7.57;70.18;102496.34;5097280;28;26812;-80
2021/12/20 03:27:34;;;;;;;;;;;;;;;7.52;70.52;102492.84;5096886;28;26865;-80
2021/12/20 03:29:59;;;;;;;;;;;;;;;7.50;70.56;102494.53;5095874;28;26856;-81
2021/12/20 03:32:25;;;;;;;;;;;;;;;7.48;70.11;102500.50;5095846;28;26828;-80
2021/12/20 03:34:50;;;;;;;;;;;;;;;7.43;70.45;102497.84;5096482;28;49854;-80
2021/12/20 03:37:15;;;;;;;;;;;;;;;7.41;70.01;102502.13;5097303;28;27520;-80
2021/12/20 03:39:40;;;;;;;;;;;;;;;7.38;70.06;102504.66;5097270;28;26747;-80
2021/12/20 03:42:05;;;;;;;;;;;;;;;7.32;69.83;102496.81;5096668;28;45258;-79
2021/12/20 03:44:33;;;;;;;;;;;;;;;7.28;69.85;102506.19;5099143;28;27013;-79
2021/12/20 03:46:59;;;;;;;;;;;;;;;7.24;70.07;102496.69;5099041;28;26953;-80
2021/12/20 03:49:24;;;;;;;;;;;;;;;7.18;69.81;102496.63;5096059;28;26899;-79
2021/12/20 03:51:49;;;;;;;;;;;;;;;7.14;69.63;102499.09;5096153;28;35718;-81
2021/12/20 03:54:14;;;;;;;;;;;;;;;7.08;69.64;102504.16;5100033;28;51425;-82
2021/12/20 03:56:40;;;;;;;;;;;;;;;7.01;70.26;102497.19;5098900;28;56014;-81
2021/12/20 03:59:05;;;;;;;;;;;;;;;6.96;70.14;102504.81;5098179;28;26912;-80
2021/12/20 04:01:30;;;;;;;;;;;;;;;6.91;69.75;102505.53;5098091;28;32233;-78
2021/12/20 04:03:57;;;;;;;;;;;;;;;6.85;69.73;102513.16;5098320;28;27036;-80
2021/12/20 04:06:23;;;;;;;;;;;;;;;6.77;70.40;102503.63;5097904;28;26929;-78
2021/12/20 04:08:48;;;;;;;;;;;;;;;6.73;70.50;102506.97;5098238;28;26902;-81
2021/12/20 04:11:14;;;;;;;;;;;;;;;6.67;69.59;102501.69;5098640;28;27539;-80
2021/12/20 04:13:39;;;;;;;;;;;;;;;6.62;70.28;102502.47;5098308;28;26727;-81
2021/12/20 04:16:04;;;;;;;;;;;;;;;6.58;70.29;102511.81;5099005;28;56978;-77
2021/12/20 04:18:30;;;;;;;;;;;;;;;6.52;70.36;102511.72;5100349;28;26865;-78
2021/12/20 04:20:55;;;;;;;;;;;;;;;6.44;70.37;102510.69;5099923;28;26727;-79
2021/12/20 04:23:20;;;;;;;;;;;;;;;6.38;70.18;102513.13;5102920;28;32123;-81
2021/12/20 04:25:45;;;;;;;;;;;;;;;6.28;69.99;102512.09;5105356;28;36456;-79
2021/12/20 04:28:11;;;;;;;;;;;;;;;6.23;70.12;102517.94;5101640;28;26517;-79
2021/12/20 04:30:36;;;;;;;;;;;;;;;6.17;70.29;102507.56;5099423;28;27033;-79
2021/12/20 04:33:01;;;;;;;;;;;;;;;6.12;69.96;102514.31;5099155;28;26826;-79
2021/12/20 04:35:27;;;;;;;;;;;;;;;6.07;70.70;102515.94;5099668;28;27743;-78
2021/12/20 04:37:53;;;;;;;;;;;;;;;6.04;70.08;102516.72;5099487;28;27032;-79
2021/12/20 04:40:19;;;;;;;;;;;;;;;6.01;70.78;102513.22;5099460;28;26982;-78
2021/12/20 04:42:45;;;;;;;;;;;;;;;5.98;70.42;102505.47;5099562;28;26973;-79
2021/12/20 04:45:11;;;;;;;;;;;;;;;5.94;70.46;102499.41;5098682;28;27592;-79
2021/12/20 04:47:36;;;;;;;;;;;;;;;5.92;69.85;102510.47;5100010;28;26988;-79
2021/12/20 04:50:01;;;;;;;;;;;;;;;5.88;70.89;102511.25;5100412;28;33727;-79
2021/12/20 04:52:28;;;;;;;;;;;;;;;5.84;70.15;102508.59;5103173;28;26986;-77
2021/12/20 04:54:53;;;;;;;;;;;;;;;5.78;70.23;102503.31;5102449;28;26950;-78
2021/12/20 04:57:18;;;;;;;;;;;;;;;5.75;70.91;102510.94;5100332;28;55275;-78
2021/12/20 04:59:43;;;;;;;;;;;;;;;5.70;70.31;102515.06;5099139;28;27132;-79
2021/12/20 05:02:09;;;;;;;;;;;;;;;5.66;70.65;102518.41;5099941;28;43660;-78
2021/12/20 05:04:34;;;;;;;;;;;;;;;5.62;69.86;102511.50;5106820;28;46744;-78
2021/12/20 05:06:59;;;;;;;;;;;;;;;5.58;70.76;102509.69;5105782;28;27072;-78
2021/12/20 05:09:28;;;;;;;;;;;;;;;5.53;70.81;102513.84;5102123;28;56987;-78
2021/12/20 05:12:01;;;;;;;;;;;;;;;5.50;70.71;102511.22;5103337;28;26928;-78
2021/12/20 05:14:26;;;;;;;;;;;;;;;5.45;70.13;102517.91;5101412;28;27000;-78
2021/12/20 05:16:51;;;;;;;;;;;;;;;5.42;70.92;102517.84;5100924;28;31826;-78
2021/12/20 05:19:16;;;;;;;;;;;;;;;5.38;71.00;102517.72;5100191;28;56966;-79
2021/12/20 05:21:41;;;;;;;;;;;;;;;5.35;70.78;102523.66;5100644;28;26837;-79
2021/12/20 05:24:07;;;;;;;;;;;;;;;5.31;70.52;102526.97;5098584;28;56133;-79
2021/12/20 05:26:32;;;;;;;;;;;;;;;5.29;70.13;102526.06;5098811;27;27029;-81
2021/12/20 05:28:57;;;;;;;;;;;;;;;5.25;70.70;102529.38;5106495;28;56448;-79
2021/12/20 05:31:22;;;;;;;;;;;;;;;5.21;70.66;102531.00;5103064;28;27008;-81
2021/12/20 05:33:47;;;;;;;;;;;;;;;5.17;70.84;102541.16;5100319;28;27686;-81
2021/12/20 05:36:13;;;;;;;;;;;;;;;5.13;71.04;102534.22;5098866;28;54246;-81
2021/12/20 05:38:38;;;;;;;;;;;;;;;5.09;70.88;102532.41;5100117;28;27000;-80
2021/12/20 05:41:03;;;;;;;;;;;;;;;5.05;70.25;102535.72;5099736;28;43351;-79
2021/12/20 05:43:28;;;;;;;;;;;;;;;5.00;70.59;102547.50;5098443;28;26734;-81
2021/12/20 05:45:53;;;;;;;;;;;;;;;4.95;70.76;102546.56;5098923;28;26968;-81
2021/12/20 05:48:18;;;;;;;;;;;;;;;4.92;70.18;102546.44;5097241;28;56244;-80
2021/12/20 05:50:44;;;;;;;;;;;;;;;4.87;71.15;102542.06;5099735;28;26904;-80
2021/12/20 05:53:09;;;;;;;;;;;;;;;4.84;70.30;102546.25;5100463;28;26528;-80
2021/12/20 05:55:34;;;;;;;;;;;;;;;4.82;70.61;102548.78;5101580;28;44118;-80
2021/12/20 05:57:59;;;;;;;;;;;;;;;4.80;70.72;102545.31;5102708;28;26993;-80
2021/12/20 06:00:24;;;;;;;;;;;;;;;4.77;70.48;102549.47;5099658;28;54559;-80
2021/12/20 06:02:50;;;;;;;;;;;;;;;4.74;70.77;102545.16;5100964;28;26845;-80
2021/12/20 06:05:16;;;;;;;;;;;;;;;4.73;70.33;102548.53;5101179;28;26888;-80
2021/12/20 06:07:42;;;;;;;;;;;;;;;4.71;71.30;102557.88;5100429;28;27016;-77
2021/12/20 06:10:10;;;;;;;;;;;;;;;4.69;70.96;102551.81;5100015;28;26821;-80
2021/12/20 06:12:35;;;;;;;;;;;;;;;4.66;70.32;102546.63;5100659;28;26736;-78
2021/12/20 06:15:01;;;;;;;;;;;;;;;4.63;71.23;102549.13;5100579;28;26965;-79
2021/12/20 06:17:26;;;;;;;;;;;;;;;4.60;71.42;102551.59;5099801;28;27656;-79
2021/12/20 06:19:51;;;;;;;;;;;;;;;4.55;71.22;102548.03;5097982;28;55131;-79
2021/12/20 06:22:16;;;;;;;;;;;;;;;4.52;70.15;102553.06;5098379;28;29371;-79
2021/12/20 06:24:41;;;;;;;;;;;;;;;4.47;69.99;102558.88;5097839;28;48477;-79
2021/12/20 06:27:07;;;;;;;;;;;;;;;4.42;70.71;102556.19;5097022;28;57092;-78
2021/12/20 06:29:33;;;;;;;;;;;;;;;4.38;71.07;102560.38;5100121;28;26852;-78
2021/12/20 06:31:58;;;;;;;;;;;;;;;4.36;70.24;102569.66;5100140;28;27717;-78
2021/12/20 06:34:23;;;;;;;;;;;;;;;4.34;70.72;102568.78;5101512;28;26926;-78
2021/12/20 06:36:48;;;;;;;;;;;;;;;4.32;71.25;102569.53;5101608;28;27042;-78
2021/12/20 06:39:13;;;;;;;;;;;;;;;4.30;71.44;102572.06;5098281;27;26844;-79
2021/12/20 06:41:39;;;;;;;;;;;;;;;4.28;71.66;102573.69;5098209;28;26919;-79
2021/12/20 06:44:04;;;;;;;;;;;;;;;4.28;71.12;102588.16;5099239;28;26872;-79
2021/12/20 06:46:30;;;;;;;;;;;;;;;4.27;70.70;102581.34;5109154;28;27110;-78
2021/12/20 06:48:55;;;;;;;;;;;;;;;4.27;71.31;102586.47;5100128;28;26912;-79
2021/12/20 06:51:20;;;;;;;;;;;;;;;4.25;71.65;102577.84;5097902;28;26986;-80
2021/12/20 06:53:46;;;;;;;;;;;;;;;4.22;71.24;102585.44;5097927;28;26773;-79
2021/12/20 06:56:12;;;;;;;;;;;;;;;4.18;71.33;102581.94;5098055;28;27053;-79
2021/12/20 06:58:38;;;;;;;;;;;;;;;4.15;71.02;102586.97;5102532;28;26872;-79
2021/12/20 07:01:03;;;;;;;;;;;;;;;4.13;70.69;102592.81;5101351;28;28339;-79
2021/12/20 07:03:28;;;;;;;;;;;;;;;4.11;71.12;102590.25;5098654;28;26697;-79
2021/12/20 07:05:53;;;;;;;;;;;;;;;4.09;71.32;102588.44;5096680;28;27079;-79
2021/12/20 07:08:18;;;;;;;;;;;;;;;4.07;71.00;102592.66;5095273;28;27132;-79
2021/12/20 07:10:44;;;;;;;;;;;;;;;4.04;71.27;102597.69;5094898;28;26967;-79
2021/12/20 07:13:10;;;;;;;;;;;;;;;4.02;70.96;102589.06;5095210;28;29105;-79
2021/12/20 07:15:35;;;;;;;;;;;;;;;4.00;70.66;102598.41;5093518;28;27145;-80
2021/12/20 07:18:01;;;;;;;;;;;;;;;3.99;71.08;102594.09;5093579;28;26985;-80
2021/12/20 07:20:26;;;;;;;;;;;;;;;3.98;70.81;102589.81;5092683;28;27047;-79
2021/12/20 07:22:51;;;;;;;;;;;;;;;3.96;70.77;102599.13;5091665;28;36248;-78
2021/12/20 07:25:17;;;;;;;;;;;;;;;3.95;70.75;102597.38;5092236;28;31314;-81
2021/12/20 07:27:43;;;;;;;;;;;;;;;3.93;71.15;102593.94;5092371;28;27259;-81
2021/12/20 07:30:08;;;;;;;;;;;;;;;3.92;70.86;102597.28;5071820;28;27192;-80
2021/12/20 07:32:33;;;;;;;;;;;;;;;3.92;71.11;102612.63;5087591;28;27074;-81
2021/12/20 07:34:58;;;;;;;;;;;;;;;3.88;71.25;102604.88;5088007;28;42555;-81
2021/12/20 07:37:27;;;;;;;;;;;;;;;3.87;71.20;102600.56;5088017;28;49413;-80
2021/12/20 07:39:52;;;;;;;;;;;;;;;3.88;71.38;102610.00;5090101;28;27542;-81
2021/12/20 07:42:17;;;;;;;;;;;;;;;3.88;70.92;102607.44;5087882;28;27126;-81
2021/12/20 07:44:43;;;;;;;;;;;;;;;3.86;71.05;102609.06;5089817;28;57507;-81
2021/12/20 07:47:08;;;;;;;;;;;;;;;3.84;71.13;102613.25;5089592;28;27126;-81
2021/12/20 07:49:34;;;;;;;;;;;;;;;3.84;71.54;102605.59;5089183;28;27049;-80
2021/12/20 07:52:00;;;;;;;;;;;;;;;3.83;71.16;102611.53;5070528;28;27080;-79
2021/12/20 07:54:25;;;;;;;;;;;;;;;3.83;70.63;102614.06;5090531;28;27415;-81
2021/12/20 07:56:50;;;;;;;;;;;;;;;3.84;71.49;102614.94;5091482;28;34227;-79
2021/12/20 07:59:16;;;;;;;;;;;;;;;3.83;71.48;102619.19;5091317;28;26888;-81
2021/12/20 08:01:41;;;;;;;;;;;;;;;3.82;71.43;102617.44;5094138;28;26928;-81
2021/12/20 08:04:09;;;;;;;;;;;;;;;3.83;71.79;102624.28;5091975;28;40156;-82
2021/12/20 08:06:34;;;;;;;;;;;;;;;3.83;71.41;102618.31;5091723;28;27310;-81
2021/12/20 08:08:59;;;;;;;;;;;;;;;3.83;71.39;102619.19;5088776;28;27092;-80
2021/12/20 08:11:25;;;;;;;;;;;;;;;3.84;70.97;102620.94;5086905;28;54949;-81
2021/12/20 08:13:50;;;;;;;;;;;;;;;3.86;71.30;102624.38;5095641;28;48823;-80
2021/12/20 08:16:15;;;;;;;;;;;;;;;3.88;72.13;102630.44;5093816;28;27070;-81
2021/12/20 08:18:41;;;;;;;;;;;;;;;3.90;72.01;102626.22;5089068;28;26988;-79
2021/12/20 08:21:07;;;;;;;;;;;;;;;3.90;71.54;102639.00;5088314;28;26980;-79
2021/12/20 08:23:32;;;;;;;;;;;;;;;3.92;71.30;102640.75;5090478;28;27247;-79
2021/12/20 08:25:57;;;;;;;;;;;;;;;3.95;71.38;102638.28;5095770;28;27182;-80
2021/12/20 08:28:22;;;;;;;;;;;;;;;3.94;71.86;102631.47;5090389;28;36602;-80
2021/12/20 08:30:47;;;;;;;;;;;;;;;3.99;71.36;102640.13;5088472;28;54438;-79
2021/12/20 08:33:13;;;;;;;;;;;;;;;4.01;71.30;102633.38;5086995;28;37786;-79
2021/12/20 08:35:39;;;;;;;;;;;;;;;4.03;71.75;102637.72;5087038;28;27016;-79
2021/12/20 08:38:04;;;;;;;;;;;;;;;4.06;72.09;102642.03;5088214;28;26996;-79
2021/12/20 08:40:29;;;;;;;;;;;;;;;4.08;71.99;102645.53;5089355;28;27086;-79
2021/12/20 08:42:54;;;;;;;;;;;;;;;4.11;71.81;102653.28;5088580;28;27173;-79
2021/12/20 08:45:20;;;;;;;;;;;;;;;4.13;71.68;102643.97;5090872;28;26917;-79
2021/12/20 08:47:46;;;;;;;;;;;;;;;4.16;72.07;102650.03;5091693;28;27223;-79
2021/12/20 08:50:13;;;;;;;;;;;;;;;4.20;72.10;102661.25;5091587;28;26905;-80
2021/12/20 08:52:39;;;;;;;;;;;;;;;4.23;72.21;102666.47;5089084;28;27317;-80
2021/12/20 08:55:05;;;;;;;;;;;;;;;4.27;72.02;102668.28;5089100;28;36309;-79
2021/12/20 08:57:30;;;;;;;;;;;;;;;4.28;72.00;102676.00;5088890;28;27810;-80
2021/12/20 08:59:55;;;;;;;;;;;;;;;4.34;72.19;102680.44;5083843;28;29242;-79
2021/12/20 09:02:20;;;;;;;;;;;;;;;4.38;71.97;102677.16;5085243;27;27868;-79
2021/12/20 09:04:45;;;;;;;;;;;;;;;4.42;72.07;102679.00;5083798;28;55031;-81
2021/12/20 09:07:15;;;;;;;;;;;;;;;4.47;71.98;102685.09;5083972;28;27279;-80
2021/12/20 09:09:44;;;;;;;;;;;;;;;4.53;71.90;102687.84;5077944;28;27267;-80
2021/12/20 09:12:09;;;;;;;;;;;;;;;4.58;71.78;102678.59;5076742;28;27434;-80
2021/12/20 09:14:34;;;;;;;;;;;;;;;4.65;71.82;102683.06;5076214;28;27193;-79
2021/12/20 09:17:00;;;;;;;;;;;;;;;4.70;71.91;102681.53;5077665;28;27312;-81
2021/12/20 09:19:25;;;;;;;;;;;;;;;4.77;71.83;102678.31;5076737;28;27275;-80
2021/12/20 09:21:51;;;;;;;;;;;;;;;4.84;72.39;102685.34;5071016;28;46052;-79
2021/12/20 09:24:16;;;;;;;;;;;;;;;4.92;72.33;102682.13;5070330;28;27218;-79
2021/12/20 09:26:41;;;;;;;;;;;;;;;4.96;72.51;102679.72;5070592;28;56676;-81
2021/12/20 09:29:06;;;;;;;;;;;;;;;5.04;71.59;102693.59;5070479;28;36652;-81
2021/12/20 09:31:32;;;;;;;;;;;;;;;5.09;72.34;102686.06;5074082;28;27309;-80
2021/12/20 09:33:58;;;;;;;;;;;;;;;5.14;72.66;102682.78;5076648;28;26836;-81
2021/12/20 09:36:29;;;;;;;;;;;;;;;5.20;71.97;102692.34;5078106;28;27124;-80
2021/12/20 09:38:55;;;;;;;;;;;;;;;5.27;72.21;102696.78;5079076;28;27088;-81
2021/12/20 09:41:59;;;;;;;;;;;;;;;5.32;72.92;102695.25;5082676;28;27104;-80
2021/12/20 09:44:06;;;;;;;;;;;;;;;5.40;72.83;102685.19;5089961;28;26947;-81
2021/12/20 09:46:31;;;;;;;;;;;;;;;5.48;72.77;102687.09;5088642;28;27163;-80
2021/12/20 09:48:57;;;;;;;;;;;;;;;5.53;72.44;102695.78;5091416;28;26889;-80
2021/12/20 09:51:23;;;;;;;;;;;;;;;5.61;73.00;102689.19;5102162;28;26930;-81
2021/12/20 09:53:48;;;;;;;;;;;;;;;5.68;72.24;102685.94;5096857;28;26921;-81
2021/12/20 09:56:14;;;;;;;;;;;;;;;5.76;72.69;102692.13;5095984;28;42735;-80
2021/12/20 09:58:40;;;;;;;;;;;;;;;5.84;72.08;102692.31;5098089;28;27051;-81
2021/12/20 10:01:06;;;;;;;;;;;;;;;5.92;72.96;102695.97;5095965;28;27317;-80
2021/12/20 10:03:32;;;;;;;;;;;;;;;5.98;72.60;102690.09;5093986;28;27111;-80
2021/12/20 10:05:57;;;;;;;;;;;;;;;6.05;71.89;102697.13;5093292;28;26990;-81
2021/12/20 10:08:34;;;;;;;;;;;;;;;6.11;71.65;102702.41;5093727;28;27016;-81
2021/12/20 10:11:16;;;;;;;;;;;;;;;6.16;72.22;102690.53;5093495;28;27122;-81
2021/12/20 10:13:41;;;;;;;;;;;;;;;6.22;72.09;102688.13;5092929;28;27135;-81
2021/12/20 10:16:17;;;;;;;;;;;;;;;6.28;72.71;102690.84;5092683;28;57320;-82
2021/12/20 10:18:42;;;;;;;;;;;;;;;6.34;72.07;102696.09;5094340;28;27035;-81
2021/12/20 10:21:07;;;;;;;;;;;;;;;6.41;72.30;102703.09;5095014;28;27151;-81
2021/12/20 10:23:33;;;;;;;;;;;;;;;6.46;71.87;102710.91;5094688;28;54589;-81
2021/12/20 10:26:00;;;;;;;;;;;;;;;6.51;72.68;102699.91;5095627;28;27216;-81
2021/12/20 10:28:30;;;;;;;;;;;;;;;6.57;71.90;102705.19;5096315;28;26682;-81
2021/12/20 10:31:00;;;;;;;;;;;;;;;6.61;72.28;102694.16;5095702;28;27112;-81
2021/12/20 10:33:26;;;;;;;;;;;;;;;6.69;72.41;102700.31;5094218;28;26991;-81
2021/12/20 10:35:53;;;;;;;;;;;;;;;6.75;72.45;102708.13;5095532;28;26954;-81
2021/12/20 10:38:18;;;;;;;;;;;;;;;6.82;72.95;102700.59;5095451;28;26913;-81
2021/12/20 10:40:48;;;;;;;;;;;;;;;6.89;72.60;102697.31;5093279;28;54999;-81
2021/12/20 10:43:17;;;;;;;;;;;;;;;6.97;72.34;102690.63;5091859;28;27039;-81
2021/12/20 10:45:42;;;;;;;;;;;;;;;7.03;72.65;102693.31;5091974;28;26951;-80
2021/12/20 10:48:09;;;;;;;;;;;;;;;7.11;72.65;102699.47;5092593;28;26994;-82
2021/12/20 10:50:40;;;;;;;;;;;;;;;7.17;71.98;102699.56;5091216;28;26773;-80
2021/12/20 10:53:11;;;;;;;;;;;;;;;7.24;72.25;102696.28;5089239;28;27170;-80
2021/12/20 10:55:38;;;;;;;;;;;;;;;7.31;72.08;102692.16;5086861;28;27599;-81
2021/12/20 10:58:15;;;;;;;;;;;;;;;7.37;71.84;102695.69;5088730;28;27101;-81
2021/12/20 11:00:40;;;;;;;;;;;;;;;7.43;72.28;102697.50;5090872;28;27100;-81
2021/12/20 11:03:19;;;;;;;;;;;;;;;7.23;72.14;102653.44;5091869;28;32504;-80
2021/12/20 11:06:12;;;;;;;;;;;;;;;7.55;71.88;102698.59;5093556;28;27838;-79
2021/12/20 11:11:14;;;;;;;;;;;;;;;7.67;71.95;102698.81;5091182;28;27141;-80
2021/12/20 11:13:40;;;;;;;;;;;;;;;7.73;71.87;102708.31;5091875;28;26853;-80
2021/12/20 11:16:21;;;;;;;;;;;;;;;7.77;71.71;102700.69;5090543;28;27260;-78
2021/12/20 11:18:46;;;;;;;;;;;;;;;7.84;71.97;102698.19;5090319;28;27128;-80
2021/12/20 11:21:12;;;;;;;;;;;;;;;7.88;71.91;102694.84;5091761;28;27056;-80
2021/12/20 11:23:37;;;;;;;;;;;;;;;7.92;71.56;102699.19;5092181;28;26913;-79
2021/12/20 11:26:02;;;;;;;;;;;;;;;7.95;71.56;102696.72;5093703;28;57417;-80
2021/12/20 11:28:27;;;;;;;;;;;;;;;7.97;71.38;102697.59;5098015;28;44971;-79
2021/12/20 11:30:52;;;;;;;;;;;;;;;8.00;71.51;102697.63;5082309;28;53063;-79
2021/12/20 11:33:18;;;;;;;;;;;;;;;8.03;71.76;102702.81;5097345;28;26629;-79
2021/12/20 11:35:43;;;;;;;;;;;;;;;8.05;71.76;102686.56;5094676;28;27608;-80
2021/12/20 11:38:08;;;;;;;;;;;;;;;8.08;71.71;102690.91;5095531;28;26797;-79
2021/12/20 11:40:34;;;;;;;;;;;;;;;8.09;70.86;102690.06;5100744;28;26937;-80
2021/12/20 11:43:00;;;;;;;;;;;;;;;8.09;71.21;102692.63;5094555;28;26942;-81
2021/12/20 11:45:27;;;;;;;;;;;;;;;8.11;71.72;102693.50;5098538;28;27149;-80
2021/12/20 11:48:04;;;;;;;;;;;;;;;8.15;71.61;102687.56;5098043;28;27270;-80
2021/12/20 11:50:32;;;;;;;;;;;;;;;8.20;71.46;102683.38;5097631;28;27617;-80
2021/12/20 11:53:05;;;;;;;;;;;;;;;8.23;71.41;102685.97;5097731;28;26827;-80
2021/12/20 11:55:30;;;;;;;;;;;;;;;8.27;71.26;102677.47;5100670;28;27026;-80
2021/12/20 11:57:57;;;;;;;;;;;;;;;8.28;71.23;102674.06;5101367;28;27011;-80
2021/12/20 12:00:29;;;;;;;;;;;;;;;8.32;71.02;102678.44;5097027;28;27154;-79
2021/12/20 12:02:59;;;;;;;;;;;;;;;8.35;71.05;102675.91;5095033;28;26963;-81
2021/12/20 12:05:35;;;;;;;;;;;;;;;8.37;70.14;102679.34;5092000;28;27902;-81
2021/12/20 12:08:19;;;;;;;;;;;;;;;8.39;70.54;102682.84;5091577;28;27102;-82
2021/12/20 12:10:44;;;;;;;;;;;;;;;8.42;70.60;102682.88;5090535;28;26895;-81
2021/12/20 12:13:15;;;;;;;;;;;;;;;8.43;70.65;102679.47;5089954;28;41903;-82
2021/12/20 12:15:52;;;;;;;;;;;;;;;8.46;70.73;102682.06;5091529;28;27325;-80
2021/12/20 12:18:18;;;;;;;;;;;;;;;8.45;70.28;102680.31;5091627;28;27138;-80
2021/12/20 12:20:50;;;;;;;;;;;;;;;8.48;67.97;102682.06;5094930;28;27735;-80
2021/12/20 12:23:23;;;;;;;;;;;;;;;8.45;67.51;102685.47;5095734;28;27176;-80
2021/12/20 12:26:00;;;;;;;;;;;;;;;8.46;68.45;102689.78;5094868;28;27228;-80
2021/12/20 12:29:04;;;;;;;;;;;;;;;8.46;68.49;102689.78;5092276;28;26952;-81
2021/12/20 12:31:48;;;;;;;;;;;;;;;8.46;68.72;102684.66;5013200;28;27569;-82
2021/12/20 12:34:13;;;;;;;;;;;;;;;8.47;68.79;102686.34;5013237;28;26895;-80
2021/12/20 12:36:40;;;;;;;;;;;;;;;8.50;68.50;102686.41;5014283;28;27145;-79
2021/12/20 12:39:10;;;;;;;;;;;;;;;8.53;69.02;102686.47;5014448;28;26968;-80
2021/12/20 12:41:42;;;;;;;;;;;;;;;8.52;68.91;102687.28;5015158;28;27803;-82
2021/12/20 12:44:18;;;;;;;;;;;;;;;8.50;69.17;102686.41;5015739;28;27098;-81
2021/12/20 12:46:45;;;;;;;;;;;;;;;8.52;69.32;102689.88;5016573;28;26969;-80
2021/12/20 12:49:20;;;;;;;;;;;;;;;8.53;69.59;102686.47;5014851;28;26862;-81
2021/12/20 12:51:46;;;;;;;;;;;;;;;8.54;69.51;102684.75;5013003;28;27029;-81
2021/12/20 12:54:31;;;;;;;;;;;;;;;8.55;69.07;102683.88;5011403;28;27030;-81
2021/12/20 12:57:08;;;;;;;;;;;;;;;8.59;68.85;102690.81;5010810;28;27797;-81
2021/12/20 12:59:36;;;;;;;;;;;;;;;8.62;69.44;102685.72;5009846;28;26974;-81
2021/12/20 13:02:09;;;;;;;;;;;;;;;8.60;68.84;102696.00;5041227;28;27327;-80
2021/12/20 13:04:42;;;;;;;;;;;;;;;8.56;68.38;102694.22;5092042;28;27177;-81